createdAt,value
2023-11-18T00:05:09.490Z,75.95
2023-11-18T00:15:15.011Z,76.19
2023-11-18T00:25:19.509Z,75.76
2023-11-18T00:35:22.419Z,75.96
2023-11-18T00:45:30.096Z,76.10
2023-11-18T00:55:35.441Z,76.12
2023-11-18T01:05:48.326Z,76.15
2023-11-18T01:15:51.955Z,76.40
2023-11-18T01:25:57.168Z,76.46
2023-11-18T01:36:00.078Z,76.27
2023-11-18T01:46:08.446Z,76.49
2023-11-18T01:56:12.423Z,76.08
2023-11-18T02:06:18.279Z,76.05
2023-11-18T02:16:22.271Z,76.11
2023-11-18T02:26:26.933Z,76.25
2023-11-18T02:36:37.479Z,76.15
2023-11-18T02:46:44.845Z,75.92
2023-11-18T02:56:48.000Z,76.09
2023-11-18T03:06:52.684Z,75.94
2023-11-18T03:16:56.876Z,75.72
2023-11-18T03:27:01.704Z,75.94
2023-11-18T03:37:04.667Z,75.66
2023-11-18T03:47:09.370Z,75.31
2023-11-18T03:57:12.668Z,75.68
2023-11-18T04:07:17.128Z,75.83
2023-11-18T04:17:20.404Z,75.82
2023-11-18T04:27:24.997Z,75.88
2023-11-18T04:37:28.406Z,75.85
2023-11-18T04:47:32.833Z,75.70
2023-11-18T04:57:35.958Z,75.85
2023-11-18T05:07:42.349Z,75.84
2023-11-18T05:17:45.442Z,75.94
2023-11-18T05:27:49.884Z,76.07
2023-11-18T05:37:52.796Z,76.23
2023-11-18T05:47:58.775Z,76.46
2023-11-18T05:58:01.861Z,76.49
2023-11-18T06:08:06.390Z,76.75
2023-11-18T06:18:10.023Z,76.93
2023-11-18T06:28:16.592Z,76.99
2023-11-18T06:38:20.213Z,77.06
2023-11-18T06:48:25.161Z,76.56
2023-11-18T06:58:28.924Z,76.62
2023-11-18T07:08:33.783Z,77.72
2023-11-18T07:18:36.820Z,77.05
2023-11-18T07:28:41.697Z,76.71
2023-11-18T07:38:45.569Z,76.89
2023-11-18T07:48:53.077Z,76.65
2023-11-18T07:58:56.268Z,76.73
2023-11-18T08:09:00.750Z,76.62
2023-11-18T08:19:04.072Z,77.05
2023-11-18T08:29:09.310Z,76.74
2023-11-18T08:39:12.630Z,76.38
2023-11-18T08:49:22.352Z,75.94
2023-11-18T08:59:26.986Z,75.54
2023-11-18T09:09:33.503Z,75.38
2023-11-18T09:19:36.383Z,75.22
2023-11-18T09:29:42.350Z,74.66
2023-11-18T09:40:00.423Z,74.29
2023-11-18T09:50:12.601Z,74.26
2023-11-18T10:00:23.493Z,74.25
2023-11-18T10:10:37.089Z,73.97
2023-11-18T10:20:50.773Z,73.42
2023-11-18T10:30:58.851Z,73.40
2023-11-18T10:41:03.151Z,72.92
2023-11-18T10:51:08.269Z,72.78
2023-11-18T11:01:12.812Z,72.99
2023-11-18T11:11:23.046Z,72.30
2023-11-18T11:21:30.949Z,72.68
2023-11-18T11:31:41.411Z,72.31
2023-11-18T11:41:47.482Z,72.75
2023-11-18T11:52:00.153Z,72.50
2023-11-18T12:02:08.664Z,72.42
2023-11-18T12:12:21.609Z,73.15
2023-11-18T12:22:31.545Z,72.85
2023-11-18T12:33:12.402Z,72.82
2023-11-18T12:43:19.027Z,73.09
2023-11-18T12:53:25.368Z,73.13
2023-11-18T13:03:30.399Z,73.24
2023-11-18T13:13:42.880Z,73.19
2023-11-18T13:23:53.669Z,73.28
2023-11-18T13:33:56.747Z,73.64
2023-11-18T13:44:01.758Z,74.06
2023-11-18T13:54:08.040Z,73.93
2023-11-18T14:04:12.562Z,74.32
2023-11-18T14:14:19.203Z,74.37
2023-11-18T14:24:32.965Z,74.77
2023-11-18T14:34:39.391Z,74.33
2023-11-18T14:44:43.635Z,74.60
2023-11-18T14:54:47.521Z,74.13
2023-11-18T15:04:59.623Z,74.57
2023-11-18T15:15:03.978Z,74.90
2023-11-18T15:25:11.768Z,75.00
2023-11-18T15:35:19.235Z,75.15
2023-11-18T15:45:27.165Z,75.67
2023-11-18T15:55:33.339Z,75.98
2023-11-18T16:05:41.176Z,76.01
2023-11-18T16:15:44.189Z,75.98
2023-11-18T16:25:48.444Z,76.20
2023-11-18T16:35:53.947Z,76.69
2023-11-18T16:45:59.351Z,76.92
2023-11-18T16:56:05.449Z,77.19
2023-11-18T17:06:11.278Z,77.22
2023-11-18T17:16:17.367Z,77.06
2023-11-18T17:26:22.100Z,77.05
2023-11-18T17:36:26.476Z,77.13
2023-11-18T17:46:35.394Z,77.25
2023-11-18T17:56:38.274Z,77.70
2023-11-18T18:06:45.379Z,77.75
2023-11-18T18:16:48.264Z,78.03
2023-11-18T18:26:58.809Z,77.67
2023-11-18T18:37:02.041Z,78.27
2023-11-18T18:47:08.320Z,78.00
2023-11-18T18:57:15.095Z,77.75
2023-11-18T19:07:22.326Z,77.44
2023-11-18T19:17:30.356Z,77.50
2023-11-18T19:27:44.520Z,77.69
2023-11-18T19:37:49.721Z,77.72
2023-11-18T19:47:54.405Z,77.44
2023-11-18T19:58:04.383Z,77.53
2023-11-18T20:08:09.087Z,77.51
2023-11-18T20:18:12.777Z,77.15
2023-11-18T20:28:21.720Z,77.43
2023-11-18T20:38:25.073Z,77.73
2023-11-18T20:48:29.757Z,77.66
2023-11-18T20:58:32.897Z,77.74
2023-11-18T21:08:37.809Z,77.85
2023-11-18T21:18:41.328Z,77.89
2023-11-18T21:28:49.156Z,78.24
2023-11-18T21:38:54.575Z,78.54
2023-11-18T21:48:59.602Z,78.16
2023-11-18T21:59:04.732Z,78.19
2023-11-18T22:09:10.254Z,77.71
2023-11-18T22:19:16.559Z,78.29
2023-11-18T22:29:22.056Z,77.92
2023-11-18T22:39:25.400Z,78.05
2023-11-18T22:49:30.000Z,78.54
2023-11-18T22:59:34.164Z,78.49
2023-11-18T23:09:38.725Z,78.21
2023-11-18T23:19:49.709Z,78.49
2023-11-18T23:29:54.949Z,78.50
2023-11-18T23:39:58.308Z,77.76
2023-11-18T23:50:04.526Z,77.66
